Time;durP1;ratioP1;P1;durP2;ratioP2;P2;SDS_P1;SDS_P2;PMS_P1;PMS_P2;Temp;Humidity;BMP_temperature;BMP_pressure;BME280_temperature;BME280_humidity;BME280_pressure;Samples;Min_cycle;Max_cycle;Signal;HPM_P1;HPM_P2
2023/07/13 00:00:53;;;;;;;8.07;6.32;;;18.60;99.90;;;;;;5022285;28;20034;-65
2023/07/13 00:03:25;;;;;;;9.30;7.90;;;18.60;99.90;;;;;;5023212;28;20504;-65
2023/07/13 00:06:00;;;;;;;8.25;6.97;;;18.60;99.90;;;;;;4986361;28;20046;-65
2023/07/13 00:08:33;;;;;;;12.32;8.30;;;18.60;99.90;;;;;;5002985;28;20077;-65
2023/07/13 00:11:01;;;;;;;8.15;7.35;;;18.60;99.90;;;;;;5014694;28;20479;-65
2023/07/13 00:13:33;;;;;;;11.23;7.22;;;18.60;99.90;;;;;;5014453;28;20429;-65
2023/07/13 00:16:05;;;;;;;8.70;7.45;;;18.60;99.90;;;;;;5016387;28;20034;-65
2023/07/13 00:18:37;;;;;;;10.25;8.40;;;18.60;99.90;;;;;;5001390;28;20046;-65
2023/07/13 00:21:09;;;;;;;8.63;7.15;;;18.60;99.90;;;;;;5020047;28;20116;-65
2023/07/13 00:23:40;;;;;;;11.35;7.30;;;18.60;99.90;;;;;;5022480;28;20048;-65
2023/07/13 00:26:13;;;;;;;10.07;7.45;;;18.60;99.90;;;;;;5019833;28;20052;-65
2023/07/13 00:28:41;;;;;;;8.75;7.43;;;18.60;99.90;;;;;;5018975;28;20047;-65
2023/07/13 00:31:14;;;;;;;9.02;7.25;;;18.60;99.90;;;;;;5016422;28;20096;-65
2023/07/13 00:33:47;;;;;;;9.18;7.68;;;18.50;99.90;;;;;;4994766;28;20142;-64
2023/07/13 00:36:20;;;;;;;8.00;7.20;;;18.50;99.90;;;;;;5010628;28;20116;-64
2023/07/13 00:38:52;;;;;;;10.68;7.55;;;18.60;99.90;;;;;;5001988;28;20045;-65
2023/07/13 00:41:25;;;;;;;15.57;9.20;;;18.50;99.90;;;;;;5018209;28;20041;-65
2023/07/13 00:43:57;;;;;;;10.03;7.90;;;18.50;99.90;;;;;;5003595;28;20811;-64
2023/07/13 00:46:32;;;;;;;9.38;7.43;;;18.50;99.90;;;;;;5022901;28;20048;-64
2023/07/13 00:49:05;;;;;;;11.07;7.25;;;18.50;99.90;;;;;;5006979;28;20089;-65
2023/07/13 00:52:05;;;;;;;10.13;7.72;;;18.50;99.90;;;;;;4998366;28;20045;-65
2023/07/13 00:54:40;;;;;;;10.75;7.63;;;18.50;99.90;;;;;;4996482;28;20071;-65
2023/07/13 00:57:16;;;;;;;9.77;7.38;;;18.50;99.90;;;;;;4995586;28;20040;-65
2023/07/13 00:59:54;;;;;;;12.18;8.73;;;18.50;99.90;;;;;;5010721;28;20046;-65
2023/07/13 01:02:28;;;;;;;12.85;7.65;;;18.50;99.90;;;;;;5015976;28;20746;-65
2023/07/13 01:05:01;;;;;;;10.65;7.63;;;18.60;99.90;;;;;;5000825;28;20049;-65
2023/07/13 01:07:33;;;;;;;7.90;6.97;;;18.50;99.90;;;;;;4974368;28;20538;-64
2023/07/13 01:10:06;;;;;;;8.63;6.95;;;18.50;99.90;;;;;;5020896;28;20758;-65
2023/07/13 01:12:39;;;;;;;10.27;7.53;;;18.60;99.90;;;;;;5005065;28;20046;-64
2023/07/13 01:15:36;;;;;;;7.90;7.05;;;18.60;99.90;;;;;;4995288;28;20038;-65
2023/07/13 01:18:12;;;;;;;10.85;7.03;;;18.50;99.90;;;;;;4995439;28;20096;-65
2023/07/13 01:20:55;;;;;;;11.07;7.60;;;18.50;99.90;;;;;;4994595;28;20071;-64
2023/07/13 01:23:24;;;;;;;10.60;7.20;;;18.50;99.90;;;;;;5005112;28;20496;-65
2023/07/13 01:25:57;;;;;;;12.25;7.72;;;18.50;99.90;;;;;;5003577;28;20077;-65
2023/07/13 01:28:29;;;;;;;14.73;8.13;;;18.50;99.90;;;;;;5002308;28;20515;-65
2023/07/13 01:31:01;;;;;;;8.60;7.30;;;18.50;99.90;;;;;;5003385;28;20069;-64
2023/07/13 01:33:28;;;;;;;9.88;8.43;;;18.40;99.90;;;;;;5020548;28;20095;-65
2023/07/13 01:36:02;;;;;;;8.35;7.35;;;18.40;99.90;;;;;;4998475;28;20045;-65
2023/07/13 01:38:34;;;;;;;10.57;7.05;;;18.30;99.90;;;;;;4997237;28;20034;-63
2023/07/13 01:41:07;;;;;;;;;;;18.20;99.90;;;;;;4994912;28;20042;-63
2023/07/13 01:43:34;;;;;;;9.07;7.15;;;18.20;99.90;;;;;;5012779;28;20007;-63
2023/07/13 01:46:06;;;;;;;8.57;6.75;;;18.20;99.90;;;;;;4998954;28;20042;-64
2023/07/13 01:48:33;;;;;;;10.80;7.57;;;18.10;99.90;;;;;;5007933;28;20042;-65
2023/07/13 01:51:05;;;;;;;13.00;7.00;;;18.10;99.90;;;;;;5002340;28;20060;-64
2023/07/13 01:53:32;;;;;;;6.45;5.75;;;18.10;99.90;;;;;;5003317;28;20215;-65
2023/07/13 01:56:04;;;;;;;9.10;5.57;;;18.10;99.90;;;;;;5005130;28;20125;-64
2023/07/13 01:58:36;;;;;;;7.82;4.80;;;18.10;99.90;;;;;;4996210;28;20048;-65
2023/07/13 02:01:08;;;;;;;6.50;4.60;;;18.00;99.90;;;;;;4996665;28;20038;-65
2023/07/13 02:03:40;;;;;;;10.40;4.60;;;18.00;99.90;;;;;;5003504;28;20048;-65
2023/07/13 02:06:12;;;;;;;4.70;4.18;;;18.00;99.90;;;;;;5010554;28;20415;-65
2023/07/13 02:08:44;;;;;;;5.95;4.28;;;18.00;99.90;;;;;;4998795;28;20056;-65
2023/07/13 02:11:16;;;;;;;6.93;4.82;;;17.90;99.90;;;;;;5006341;28;20041;-64
2023/07/13 02:13:48;;;;;;;6.47;4.28;;;17.90;99.90;;;;;;4992145;28;20100;-65
2023/07/13 02:16:15;;;;;;;7.63;4.32;;;17.90;99.90;;;;;;5020782;28;20037;-65
2023/07/13 02:18:47;;;;;;;5.05;3.38;;;17.90;99.90;;;;;;5005372;28;20055;-65
2023/07/13 02:21:13;;;;;;;6.35;4.18;;;17.90;99.90;;;;;;5002498;28;20037;-65
2023/07/13 02:23:45;;;;;;;4.82;3.50;;;17.80;99.90;;;;;;4998880;28;20546;-65
2023/07/13 02:26:17;;;;;;;5.43;3.00;;;17.70;99.90;;;;;;4992747;28;20038;-65
2023/07/13 02:28:49;;;;;;;4.88;3.58;;;17.70;99.90;;;;;;5014157;28;20056;-65
2023/07/13 02:31:21;;;;;;;4.30;3.65;;;17.70;99.90;;;;;;5012366;28;20108;-65
2023/07/13 02:33:53;;;;;;;6.05;3.40;;;17.60;99.90;;;;;;5018267;28;20041;-65
2023/07/13 02:36:25;;;;;;;4.90;3.38;;;17.70;99.90;;;;;;5004190;28;20048;-65
2023/07/13 02:39:02;;;;;;;5.85;3.13;;;17.60;99.90;;;;;;4986711;28;20419;-65
2023/07/13 02:41:35;;;;;;;6.85;3.70;;;17.60;99.90;;;;;;4987293;28;20038;-64
2023/07/13 02:44:08;;;;;;;5.68;3.28;;;17.60;99.90;;;;;;5024910;28;20037;-65
2023/07/13 02:46:40;;;;;;;3.75;3.05;;;17.60;99.90;;;;;;4997789;28;20132;-65
2023/07/13 02:49:13;;;;;;;5.55;3.33;;;17.50;99.90;;;;;;4994912;28;20049;-65
2023/07/13 02:51:44;;;;;;;4.93;3.20;;;17.40;99.90;;;;;;4994351;28;20048;-65
2023/07/13 02:54:16;;;;;;;3.70;2.83;;;17.40;99.90;;;;;;5013270;28;20061;-65
2023/07/13 02:56:49;;;;;;;4.32;3.08;;;17.40;99.90;;;;;;5009483;28;20042;-65
2023/07/13 02:59:16;;;;;;;6.00;3.38;;;17.40;99.90;;;;;;5001653;28;20133;-65
2023/07/13 03:01:48;;;;;;;4.10;3.08;;;17.40;99.90;;;;;;4993893;28;20534;-65
2023/07/13 03:04:19;;;;;;;4.63;3.28;;;17.40;99.90;;;;;;4999704;28;20046;-65
2023/07/13 03:06:52;;;;;;;5.60;3.17;;;17.40;99.90;;;;;;5005615;28;20117;-65
2023/07/13 03:09:27;;;;;;;5.03;2.60;;;17.40;99.90;;;;;;5004235;28;20042;-65
2023/07/13 03:12:00;;;;;;;6.82;3.17;;;17.40;99.90;;;;;;4988099;28;20084;-65
2023/07/13 03:14:32;;;;;;;3.95;3.08;;;17.50;99.90;;;;;;4980324;28;20060;-65
2023/07/13 03:17:06;;;;;;;5.25;3.33;;;17.40;99.90;;;;;;4995831;28;20052;-65
2023/07/13 03:19:40;;;;;;;8.75;3.28;;;17.50;99.90;;;;;;5009204;28;20523;-65
2023/07/13 03:22:12;;;;;;;3.58;3.17;;;17.40;99.90;;;;;;5005763;28;20042;-65
2023/07/13 03:24:44;;;;;;;4.88;3.58;;;17.40;99.90;;;;;;4988699;28;20137;-65
2023/07/13 03:27:17;;;;;;;4.90;2.97;;;17.50;99.90;;;;;;4987992;28;20045;-65
2023/07/13 03:29:50;;;;;;;3.55;2.70;;;17.50;99.90;;;;;;5007881;28;20064;-66
2023/07/13 03:32:22;;;;;;;5.40;3.35;;;17.40;99.90;;;;;;5002733;28;20046;-65
2023/07/13 03:34:54;;;;;;;6.35;3.28;;;17.30;99.90;;;;;;5010982;28;20065;-64
2023/07/13 03:37:26;;;;;;;4.80;3.30;;;17.40;99.90;;;;;;5010216;28;20053;-65
2023/07/13 03:39:58;;;;;;;4.40;2.60;;;17.50;99.90;;;;;;5000903;28;20045;-65
2023/07/13 03:42:30;;;;;;;6.22;3.03;;;17.60;99.90;;;;;;4987595;28;20137;-65
2023/07/13 03:45:03;;;;;;;4.55;2.60;;;17.60;99.90;;;;;;5003417;28;20049;-65
2023/07/13 03:47:35;;;;;;;5.07;3.00;;;17.50;99.90;;;;;;5005552;28;20060;-65
2023/07/13 03:50:07;;;;;;;3.85;2.50;;;17.70;99.90;;;;;;5003169;28;20133;-65
2023/07/13 03:52:40;;;;;;;7.00;3.10;;;17.70;99.90;;;;;;5003228;28;20038;-65
2023/07/13 03:55:07;;;;;;;3.00;2.22;;;17.70;99.90;;;;;;5006546;28;20055;-65
2023/07/13 03:57:40;;;;;;;5.15;2.45;;;17.70;99.90;;;;;;5001610;28;20575;-65
2023/07/13 04:00:13;;;;;;;4.07;2.50;;;17.70;99.90;;;;;;4998255;28;20137;-65
2023/07/13 04:02:47;;;;;;;3.45;2.80;;;17.60;99.90;;;;;;4999579;28;20053;-65
2023/07/13 04:05:19;;;;;;;4.78;2.50;;;17.60;99.90;;;;;;5004396;28;20039;-66
2023/07/13 04:07:51;;;;;;;4.45;2.55;;;17.70;99.90;;;;;;5009203;28;20045;-67
2023/07/13 04:10:23;;;;;;;5.68;3.15;;;17.70;99.90;;;;;;5003172;28;20111;-66
2023/07/13 04:12:55;;;;;;;3.88;2.28;;;17.50;99.90;;;;;;5001923;28;20051;-67
2023/07/13 04:15:31;;;;;;;4.43;2.40;;;17.50;99.90;;;;;;5014474;28;20129;-67
2023/07/13 04:18:03;;;;;;;4.15;2.67;;;17.50;99.90;;;;;;5018277;28;20060;-67
2023/07/13 04:20:35;;;;;;;3.08;1.90;;;17.40;99.90;;;;;;5011791;28;20046;-65
2023/07/13 04:23:07;;;;;;;6.22;2.38;;;17.30;99.90;;;;;;5015851;28;20053;-67
2023/07/13 04:25:34;;;;;;;3.17;2.28;;;17.20;99.90;;;;;;5015484;28;20057;-64
2023/07/13 04:28:06;;;;;;;5.65;2.50;;;17.20;99.90;;;;;;5018158;28;20052;-65
2023/07/13 04:30:38;;;;;;;4.28;2.78;;;17.10;99.90;;;;;;5003162;28;20041;-64
2023/07/13 04:33:10;;;;;;;5.55;3.28;;;17.20;99.90;;;;;;5017023;28;20420;-65
2023/07/13 04:35:43;;;;;;;5.13;3.20;;;17.10;99.90;;;;;;4984822;28;20046;-64
2023/07/13 04:38:16;;;;;;;5.75;2.58;;;17.00;99.90;;;;;;5017083;28;20488;-64
2023/07/13 04:40:47;;;;;;;5.05;3.00;;;17.00;99.90;;;;;;5008826;28;20066;-65
2023/07/13 04:43:14;;;;;;;5.65;3.33;;;17.10;99.90;;;;;;5008369;28;20044;-66
2023/07/13 04:45:46;;;;;;;4.00;2.38;;;17.20;99.90;;;;;;4990241;28;20704;-66
2023/07/13 04:48:19;;;;;;;3.95;2.67;;;17.30;99.90;;;;;;5010971;28;20049;-65
2023/07/13 04:50:56;;;;;;;6.73;4.10;;;17.30;99.90;;;;;;5017588;28;20582;-64
2023/07/13 04:53:29;;;;;;;10.65;2.72;;;17.60;99.90;;;;;;5014183;28;20315;-64
2023/07/13 04:55:56;;;;;;;6.00;2.53;;;17.60;99.90;;;;;;5015420;28;20046;-64
2023/07/13 04:58:24;;;;;;;8.50;2.80;;;17.70;99.90;;;;;;5019237;28;20037;-64
2023/07/13 05:01:06;;;;;;;7.20;2.85;;;17.80;99.90;;;;;;4998751;28;20057;-63
2023/07/13 05:03:38;;;;;;;5.55;2.92;;;17.80;99.90;;;;;;5006571;28;20092;-64
2023/07/13 05:06:10;;;;;;;4.75;2.40;;;17.80;99.90;;;;;;5009607;28;20037;-64
2023/07/13 05:08:37;;;;;;;5.78;2.67;;;17.80;99.90;;;;;;5021610;28;20550;-64
2023/07/13 05:11:06;;;;;;;5.07;2.10;;;17.80;99.90;;;;;;5015096;28;20048;-64
2023/07/13 05:13:38;;;;;;;4.43;2.40;;;17.80;99.90;;;;;;5016943;28;20061;-64
2023/07/13 05:16:10;;;;;;;4.22;2.10;;;17.70;99.90;;;;;;5014953;28;20154;-64
2023/07/13 05:18:42;;;;;;;4.30;2.55;;;17.70;99.90;;;;;;4997690;28;20040;-64
2023/07/13 05:21:13;;;;;;;5.35;2.40;;;17.70;99.90;;;;;;4995430;28;20037;-64
2023/07/13 05:23:47;;;;;;;5.75;2.28;;;17.60;99.90;;;;;;5016218;28;20057;-64
2023/07/13 05:26:20;;;;;;;7.05;2.20;;;17.40;99.90;;;;;;4990450;28;20038;-64
2023/07/13 05:28:47;;;;;;;3.20;1.90;;;17.40;99.90;;;;;;5013064;28;20038;-64
2023/07/13 05:31:19;;;;;;;3.75;1.88;;;17.50;99.90;;;;;;5014808;28;20125;-64
2023/07/13 05:33:51;;;;;;;3.88;2.15;;;17.60;99.90;;;;;;4993663;28;20535;-64
2023/07/13 05:36:23;;;;;;;4.13;2.38;;;17.70;99.90;;;;;;5014574;28;20041;-64
2023/07/13 05:38:54;;;;;;;6.43;2.08;;;17.80;99.90;;;;;;5014794;28;20045;-64
2023/07/13 05:41:21;;;;;;;2.55;2.08;;;17.80;99.90;;;;;;5003677;28;20048;-65
2023/07/13 05:43:53;;;;;;;3.80;2.42;;;17.70;99.90;;;;;;5016625;23;20054;-70
2023/07/13 05:46:26;;;;;;;3.72;2.20;;;17.70;99.90;;;;;;5003803;28;20132;-70
2023/07/13 05:48:58;;;;;;;3.03;2.40;;;17.70;99.90;;;;;;5016382;28;20416;-71
2023/07/13 05:51:30;;;;;;;2.58;1.77;;;17.70;99.90;;;;;;5015142;28;20049;-70
2023/07/13 05:54:02;;;;;;;2.75;2.00;;;17.80;99.90;;;;;;5040999;28;20045;-72
2023/07/13 05:56:34;;;;;;;3.00;1.88;;;17.80;99.90;;;;;;5060079;28;20044;-70
2023/07/13 05:59:06;;;;;;;3.63;2.85;;;17.70;99.90;;;;;;5042570;28;20055;-71
2023/07/13 06:01:37;;;;;;;3.75;2.10;;;17.70;99.90;;;;;;5036536;28;20056;-70
2023/07/13 06:04:04;;;;;;;5.95;2.30;;;17.60;99.90;;;;;;5043550;28;20071;-71
2023/07/13 06:06:36;;;;;;;3.83;2.25;;;17.60;99.90;;;;;;5041433;28;20033;-71
2023/07/13 06:09:08;;;;;;;5.05;2.10;;;17.50;99.90;;;;;;5034882;28;20106;-70
2023/07/13 06:11:40;;;;;;;8.27;2.30;;;17.40;99.90;;;;;;5029802;28;20504;-71
2023/07/13 06:14:12;;;;;;;3.20;1.77;;;17.40;99.90;;;;;;5029056;28;20042;-70
2023/07/13 06:16:41;;;;;;;3.65;2.10;;;17.40;99.90;;;;;;5034982;28;20417;-70
2023/07/13 06:19:13;;;;;;;2.33;2.03;;;17.40;99.90;;;;;;5052854;28;20045;-71
2023/07/13 06:21:45;;;;;;;2.92;1.95;;;17.30;99.90;;;;;;5050323;28;20051;-70
2023/07/13 06:24:17;;;;;;;3.25;2.30;;;17.30;99.90;;;;;;5058415;28;20044;-70
2023/07/13 06:26:49;;;;;;;2.47;1.80;;;17.30;99.90;;;;;;5059711;28;20413;-71
2023/07/13 06:29:21;;;;;;;8.80;2.33;;;17.30;99.90;;;;;;5040128;28;20045;-70
2023/07/13 06:31:52;;;;;;;6.75;2.30;;;17.30;99.90;;;;;;5036215;28;20051;-70
2023/07/13 06:34:24;;;;;;;3.17;2.22;;;17.30;99.90;;;;;;5051467;28;20119;-70
2023/07/13 06:36:56;;;;;;;2.53;2.15;;;17.20;99.90;;;;;;5051638;28;20040;-70
2023/07/13 06:39:28;;;;;;;6.05;2.20;;;17.20;99.90;;;;;;5017195;28;20072;-69
2023/07/13 06:42:00;;;;;;;4.53;2.45;;;17.20;99.90;;;;;;5041556;28;20049;-70
2023/07/13 06:44:32;;;;;;;3.00;2.08;;;17.40;99.90;;;;;;5038286;28;20141;-70
2023/07/13 06:47:04;;;;;;;4.53;2.10;;;17.50;99.90;;;;;;5060787;28;20041;-70
2023/07/13 06:49:36;;;;;;;6.15;2.83;;;17.50;99.90;;;;;;5042733;28;20060;-70
2023/07/13 06:52:08;;;;;;;6.38;2.40;;;17.70;99.90;;;;;;5050520;28;20056;-70
2023/07/13 06:54:40;;;;;;;2.65;2.10;;;17.80;99.90;;;;;;5047849;28;20478;-71
2023/07/13 06:57:12;;;;;;;5.25;2.10;;;17.90;99.90;;;;;;5038490;28;20043;-70
2023/07/13 06:59:43;;;;;;;4.90;2.15;;;18.00;99.90;;;;;;5045614;28;20053;-69
2023/07/13 07:02:15;;;;;;;4.25;2.25;;;18.20;99.90;;;;;;5047745;28;20050;-71
2023/07/13 07:04:47;;;;;;;2.95;1.83;;;18.40;99.90;;;;;;5038850;28;20044;-70
2023/07/13 07:07:19;;;;;;;4.10;2.05;;;18.60;99.90;;;;;;5039869;28;20048;-69
2023/07/13 07:09:51;;;;;;;6.10;2.10;;;18.70;99.90;;;;;;5019871;28;20051;-70
2023/07/13 07:12:22;;;;;;;5.15;2.17;;;18.70;99.90;;;;;;5044560;28;20586;-70
2023/07/13 07:14:55;;;;;;;4.03;2.03;;;18.70;99.90;;;;;;5063300;28;20032;-71
2023/07/13 07:17:27;;;;;;;4.07;2.10;;;18.80;99.90;;;;;;5025228;28;20409;-71
2023/07/13 07:19:53;;;;;;;2.38;2.03;;;18.80;99.90;;;;;;5032682;28;20055;-70
2023/07/13 07:22:27;;;;;;;6.05;2.08;;;18.90;99.90;;;;;;5034042;28;20580;-71
2023/07/13 07:24:54;;;;;;;4.00;1.90;;;18.90;99.90;;;;;;5053138;28;20032;-70
2023/07/13 07:27:21;;;;;;;4.05;3.03;;;19.00;99.90;;;;;;5061347;28;20072;-70
2023/07/13 07:29:53;;;;;;;5.85;2.55;;;19.00;99.90;;;;;;5057008;28;20053;-71
2023/07/13 07:32:25;;;;;;;3.65;2.15;;;18.90;99.90;;;;;;5055387;28;20128;-70
2023/07/13 07:35:00;;;;;;;2.80;2.13;;;18.90;99.90;;;;;;5044469;28;20052;-70
2023/07/13 07:37:32;;;;;;;2.22;2.03;;;19.00;99.90;;;;;;5062398;28;20503;-69
2023/07/13 07:40:05;;;;;;;4.00;2.33;;;19.00;99.90;;;;;;5024552;28;20052;-71
2023/07/13 07:42:37;;;;;;;5.38;2.08;;;19.00;99.90;;;;;;5032363;28;20124;-71
2023/07/13 07:45:11;;;;;;;5.25;2.97;;;18.90;99.90;;;;;;5051285;28;20044;-69
2023/07/13 07:47:43;;;;;;;3.80;2.13;;;19.00;99.90;;;;;;5035855;28;20049;-70
2023/07/13 07:50:15;;;;;;;3.45;2.00;;;18.90;99.90;;;;;;5054251;28;20045;-69
2023/07/13 07:52:47;;;;;;;7.10;2.70;;;18.80;99.90;;;;;;5021719;28;20041;-70
2023/07/13 07:55:14;;;;;;;5.28;2.65;;;18.90;99.90;;;;;;5041929;28;20489;-70
2023/07/13 07:57:40;;;;;;;4.05;2.08;;;19.00;99.90;;;;;;5062243;28;20044;-70
2023/07/13 08:00:08;;;;;;;3.00;2.35;;;19.00;99.90;;;;;;5064153;28;20033;-71
2023/07/13 08:02:41;;;;;;;2.72;1.90;;;19.10;99.90;;;;;;5029963;28;20056;-70
2023/07/13 08:05:13;;;;;;;4.80;2.45;;;19.20;99.90;;;;;;5032153;28;20044;-71
2023/07/13 08:07:45;;;;;;;3.60;2.38;;;19.30;99.90;;;;;;5062585;28;20128;-70
2023/07/13 08:10:17;;;;;;;5.30;2.42;;;19.30;99.90;;;;;;5037152;28;20060;-71
2023/07/13 08:12:44;;;;;;;4.13;2.47;;;19.30;99.90;;;;;;5042655;28;20568;-71
2023/07/13 08:15:14;;;;;;;5.85;2.55;;;19.40;99.90;;;;;;5060897;28;20063;-70
2023/07/13 08:17:41;;;;;;;3.25;2.53;;;19.40;99.90;;;;;;5022237;28;20122;-71
2023/07/13 08:20:14;;;;;;;4.38;2.30;;;19.50;99.90;;;;;;5058813;28;20491;-70
2023/07/13 08:22:41;;;;;;;5.25;2.42;;;19.50;99.90;;;;;;5038953;28;20045;-70
2023/07/13 08:25:08;;;;;;;3.17;2.40;;;19.50;99.90;;;;;;5054615;28;20553;-70
2023/07/13 08:27:35;;;;;;;5.60;2.13;;;19.50;99.90;;;;;;5048627;28;20037;-71
2023/07/13 08:30:08;;;;;;;4.10;2.22;;;19.50;99.90;;;;;;5057127;28;20049;-69
2023/07/13 08:32:40;;;;;;;5.47;2.47;;;19.50;99.90;;;;;;5037290;28;20053;-70
2023/07/13 08:35:13;;;;;;;4.85;2.15;;;19.50;99.90;;;;;;5058936;28;20051;-70
2023/07/13 08:37:45;;;;;;;4.55;1.90;;;19.60;99.90;;;;;;5062251;28;20049;-70
2023/07/13 08:40:23;;;;;;;2.58;1.88;;;19.70;99.90;;;;;;5042295;28;20522;-70
2023/07/13 08:42:59;;;;;;;7.22;1.92;;;19.70;99.90;;;;;;5064491;28;20223;-70
2023/07/13 08:45:31;;;;;;;5.75;2.47;;;19.80;99.90;;;;;;5054344;28;20102;-70
2023/07/13 08:48:14;;;;;;;2.92;1.90;;;19.80;99.90;;;;;;5036518;28;20074;-70
2023/07/13 08:50:57;;;;;;;4.38;1.80;;;19.90;99.90;;;;;;5036247;28;20044;-69
2023/07/13 08:53:46;;;;;;;2.60;1.80;;;19.80;99.90;;;;;;5065124;28;20045;-71
2023/07/13 08:56:21;;;;;;;3.05;1.77;;;19.90;99.90;;;;;;5043747;28;20068;-70
2023/07/13 08:58:55;;;;;;;6.20;1.95;;;20.00;99.90;;;;;;5060107;28;20052;-70
2023/07/13 09:01:44;;;;;;;3.47;1.80;;;20.00;99.90;;;;;;5036454;28;20121;-69
2023/07/13 09:04:22;;;;;;;5.05;2.00;;;20.10;99.90;;;;;;5026316;28;20045;-69
2023/07/13 09:06:54;;;;;;;4.35;1.60;;;20.30;99.90;;;;;;5052850;28;20049;-70
2023/07/13 09:09:33;;;;;;;5.97;2.00;;;20.30;99.90;;;;;;5032984;28;20061;-70
2023/07/13 09:12:22;;;;;;;3.90;1.73;;;20.40;99.90;;;;;;5027746;28;20064;-70
2023/07/13 09:14:57;;;;;;;2.33;2.00;;;20.50;99.90;;;;;;5047453;28;20033;-69
2023/07/13 09:17:35;;;;;;;7.22;2.20;;;20.50;99.90;;;;;;5039074;28;20546;-70
2023/07/13 09:20:17;;;;;;;6.53;2.38;;;20.40;99.90;;;;;;5057967;28;20033;-69
2023/07/13 09:22:50;;;;;;;2.55;2.20;;;20.50;99.90;;;;;;5042394;28;20136;-70
2023/07/13 09:25:35;;;;;;;2.90;2.10;;;20.40;99.90;;;;;;5038268;28;20045;-70
2023/07/13 09:28:15;;;;;;;5.05;2.47;;;20.30;99.90;;;;;;5034108;28;20608;-69
2023/07/13 09:31:05;;;;;;;4.97;2.10;;;20.30;99.90;;;;;;5064754;28;20051;-70
2023/07/13 09:33:38;;;;;;;4.28;2.47;;;20.30;99.90;;;;;;5029315;28;20053;-71
2023/07/13 09:36:24;;;;;;;4.23;1.90;;;20.20;99.90;;;;;;5046238;28;20597;-70
2023/07/13 09:39:03;;;;;;;3.08;2.22;;;20.10;99.90;;;;;;5047776;28;20045;-70
2023/07/13 09:42:00;;;;;;;3.83;2.35;;;20.10;99.90;;;;;;5053724;28;20047;-71
2023/07/13 09:44:33;;;;;;;3.88;2.42;;;20.10;99.90;;;;;;5043478;28;20126;-69
2023/07/13 09:47:17;;;;;;;4.38;1.70;;;20.10;99.90;;;;;;5043616;28;20045;-69
2023/07/13 09:50:02;;;;;;;3.10;1.40;;;20.20;99.90;;;;;;5053005;28;20045;-69
2023/07/13 09:52:47;;;;;;;4.25;1.48;;;20.50;99.90;;;;;;5017313;28;20503;-69
2023/07/13 09:55:37;;;;;;;2.25;1.60;;;20.80;99.90;;;;;;5040506;28;20080;-70
2023/07/13 09:58:19;;;;;;;6.90;1.92;;;21.00;99.90;;;;;;5031160;28;20059;-70
2023/07/13 10:01:05;;;;;;;2.28;1.35;;;21.10;99.90;;;;;;5035294;28;20065;-69
2023/07/13 10:03:43;;;;;;;2.08;1.45;;;21.30;99.90;;;;;;5059885;28;20063;-69
2023/07/13 10:06:19;;;;;;;2.05;1.40;;;21.50;99.90;;;;;;5043444;28;20506;-70
2023/07/13 10:08:52;;;;;;;4.80;2.45;;;21.60;99.90;;;;;;5042789;28;20548;-70
2023/07/13 10:11:29;;;;;;;4.50;1.88;;;21.60;99.90;;;;;;5039690;28;20417;-70
2023/07/13 10:14:09;;;;;;;8.05;1.85;;;21.60;99.90;;;;;;5039703;28;20064;-68
2023/07/13 10:16:44;;;;;;;4.05;1.70;;;21.60;99.90;;;;;;5049892;28;20090;-69
2023/07/13 10:19:20;;;;;;;5.00;1.90;;;21.70;99.90;;;;;;5050679;28;20116;-69
2023/07/13 10:22:01;;;;;;;4.07;1.95;;;21.70;99.90;;;;;;5042497;28;20044;-69
2023/07/13 10:24:38;;;;;;;4.07;1.70;;;21.60;99.90;;;;;;5053216;28;20506;-70
2023/07/13 10:27:18;;;;;;;5.00;1.90;;;21.40;99.90;;;;;;5047200;28;20045;-69
2023/07/13 10:30:32;;;;;;;2.28;1.80;;;21.40;99.90;;;;;;5040268;28;20045;-70
2023/07/13 10:33:12;;;;;;;2.75;1.52;;;21.50;99.90;;;;;;5023411;28;20064;-69
2023/07/13 10:35:48;;;;;;;3.55;1.52;;;21.50;99.90;;;;;;5064237;28;20041;-69
2023/07/13 10:38:24;;;;;;;4.18;1.60;;;21.50;99.90;;;;;;5054504;28;20045;-70
2023/07/13 10:41:06;;;;;;;3.97;2.05;;;21.60;99.90;;;;;;5068597;28;20040;-68
2023/07/13 10:43:45;;;;;;;3.53;1.77;;;21.70;99.90;;;;;;5049084;28;20582;-70
2023/07/13 10:46:22;;;;;;;4.28;1.90;;;21.80;99.90;;;;;;5036103;28;20124;-70
2023/07/13 10:49:02;;;;;;;5.25;1.90;;;21.90;99.90;;;;;;5035801;28;20051;-69
2023/07/13 10:51:30;;;;;;;5.90;1.67;;;22.10;99.90;;;;;;5019508;28;20052;-68
2023/07/13 10:54:37;;;;;;;3.65;1.77;;;22.10;99.90;;;;;;5057525;28;20052;-67
2023/07/13 10:57:21;;;;;;;4.80;2.45;;;22.30;99.90;;;;;;5047749;28;20155;-69
2023/07/13 11:00:21;;;;;;;3.05;1.63;;;22.40;99.90;;;;;;5055660;28;20048;-69
2023/07/13 11:03:03;;;;;;;3.13;1.80;;;22.60;99.90;;;;;;5046789;28;20048;-68
2023/07/13 11:05:35;;;;;;;4.15;1.67;;;22.70;99.90;;;;;;5047202;28;20626;-68
2023/07/13 11:08:32;;;;;;;1.63;1.50;;;22.70;99.90;;;;;;5045731;28;20396;-69
2023/07/13 11:11:25;;;;;;;4.45;2.03;;;22.80;99.90;;;;;;5036319;28;20125;-68
2023/07/13 11:13:51;;;;;;;4.90;2.08;;;22.80;99.90;;;;;;5054576;28;20124;-67
2023/07/13 11:16:24;;;;;;;7.35;1.90;;;22.80;99.90;;;;;;5043945;28;20036;-69
2023/07/13 11:19:14;;;;;;;3.20;1.92;;;23.00;99.90;;;;;;5031574;28;20037;-68
2023/07/13 11:22:05;;;;;;;3.38;1.95;;;22.90;99.90;;;;;;5052722;28;20084;-67
2023/07/13 11:24:58;;;;;;;4.68;2.00;;;22.60;99.90;;;;;;5047857;28;20051;-67
2023/07/13 11:27:40;;;;;;;3.83;1.73;;;22.70;99.90;;;;;;5027506;28;20127;-69
2023/07/13 11:30:40;;;;;;;3.38;2.80;;;22.90;99.90;;;;;;5050909;28;20041;-67
2023/07/13 11:33:19;;;;;;;1.92;1.40;;;23.20;99.90;;;;;;5035697;28;20128;-68
2023/07/13 11:36:02;;;;;;;2.72;1.70;;;23.10;99.90;;;;;;5013992;28;20049;-67
2023/07/13 11:38:34;;;;;;;3.95;1.95;;;23.20;99.90;;;;;;5054777;28;20065;-68
2023/07/13 11:41:07;;;;;;;4.55;1.80;;;23.00;99.90;;;;;;5052527;28;20106;-68
2023/07/13 11:43:39;;;;;;;4.95;1.70;;;23.00;99.90;;;;;;5022415;28;20046;-68
2023/07/13 11:46:13;;;;;;;2.10;1.52;;;23.10;99.90;;;;;;5052576;28;20036;-67
2023/07/13 11:48:47;;;;;;;3.45;1.95;;;23.30;99.90;;;;;;5033139;28;20095;-68
2023/07/13 11:51:28;;;;;;;2.65;1.63;;;23.50;99.90;;;;;;5055623;28;20043;-68
2023/07/13 11:54:35;;;;;;;2.45;1.55;;;23.60;99.90;;;;;;5022379;28;20040;-69
2023/07/13 11:57:24;;;;;;;3.08;1.80;;;23.60;99.90;;;;;;4996216;28;20483;-67
2023/07/13 11:59:59;;;;;;;3.38;1.73;;;23.80;99.90;;;;;;5024231;28;20045;-68
2023/07/13 12:02:40;;;;;;;2.22;1.90;;;23.90;99.90;;;;;;5041532;28;20051;-68
2023/07/13 12:05:12;;;;;;;3.17;1.60;;;23.70;99.90;;;;;;5053796;28;20045;-68
2023/07/13 12:07:44;;;;;;;3.63;1.80;;;23.40;99.90;;;;;;5035746;28;20052;-69
2023/07/13 12:10:19;;;;;;;2.47;2.10;;;23.50;99.90;;;;;;5057754;28;20494;-68
2023/07/13 12:12:58;;;;;;;3.67;1.88;;;23.70;99.90;;;;;;5028985;28;20071;-68
2023/07/13 12:15:44;;;;;;;2.90;1.52;;;23.80;99.90;;;;;;5057448;28;20107;-68
2023/07/13 12:18:22;;;;;;;3.45;2.00;;;23.60;99.90;;;;;;5032692;28;20064;-69
2023/07/13 12:20:57;;;;;;;6.13;2.05;;;23.50;99.90;;;;;;5034323;28;20037;-69
2023/07/13 12:23:32;;;;;;;4.28;1.92;;;23.50;99.90;;;;;;5040068;28;20048;-70
2023/07/13 12:26:06;;;;;;;2.78;1.90;;;23.60;99.90;;;;;;5049553;28;20034;-68
2023/07/13 12:28:34;;;;;;;3.50;2.08;;;23.70;99.90;;;;;;5048955;22;20434;31
2023/07/13 12:31:19;;;;;;;;;;;24.00;99.90;;;;;;4966540;28;20054;-63
2023/07/13 12:34:18;;;;;;;7.57;1.85;;;24.10;99.90;;;;;;4965170;28;19922;-61
2023/07/13 12:37:02;;;;;;;6.13;1.65;;;24.30;99.90;;;;;;4951010;29;20079;-61
2023/07/13 12:39:37;;;;;;;3.47;1.75;;;24.30;99.90;;;;;;4944276;29;20047;-61
2023/07/13 12:42:28;;;;;;;4.28;2.10;;;24.30;99.90;;;;;;4947018;29;20044;-61
2023/07/13 12:44:57;;;;;;;2.65;1.73;;;24.50;99.40;;;;;;4948306;28;20050;-61
2023/07/13 12:47:30;;;;;;;3.38;1.50;;;24.50;99.90;;;;;;4952312;29;20044;-61
2023/07/13 12:50:06;;;;;;;3.40;1.60;;;24.30;99.90;;;;;;4952475;28;20054;-61
2023/07/13 12:52:37;;;;;;;4.90;1.85;;;24.00;99.30;;;;;;4961647;28;20055;-61
2023/07/13 12:55:17;;;;;;;5.88;2.20;;;23.80;99.90;;;;;;4951744;28;20593;-61
2023/07/13 12:57:53;;;;;;;3.35;2.38;;;23.80;99.90;;;;;;4947163;29;20125;-61
2023/07/13 13:00:32;;;;;;;5.63;1.77;;;23.80;99.90;;;;;;4953778;28;20063;-61
2023/07/13 13:03:24;;;;;;;3.53;1.70;;;23.80;99.90;;;;;;4951568;29;20740;-62
2023/07/13 13:06:03;;;;;;;3.75;2.00;;;24.00;99.90;;;;;;4948173;29;20054;-61
2023/07/13 13:08:37;;;;;;;2.28;1.92;;;24.40;99.90;;;;;;4950154;28;20067;-61
2023/07/13 13:11:09;;;;;;;3.60;2.05;;;24.40;99.90;;;;;;4948311;28;20058;-61
2023/07/13 13:13:41;;;;;;;3.38;2.05;;;24.60;99.90;;;;;;4948848;29;20130;-61
2023/07/13 13:16:21;;;;;;;5.13;1.88;;;24.80;99.90;;;;;;4946410;28;20039;-61
2023/07/13 13:18:56;;;;;;;1.98;1.67;;;24.60;99.90;;;;;;4940513;29;20094;-61
2023/07/13 13:21:28;;;;;;;1.65;1.55;;;24.60;99.90;;;;;;4942628;29;20486;-61
2023/07/13 13:24:01;;;;;;;3.88;2.13;;;24.60;99.90;;;;;;4962456;28;20043;-61